createdAt,value
2017-12-26T00:01:30.611Z,14.70
2017-12-26T00:03:58.091Z,18.47
2017-12-26T00:06:29.870Z,15.57
2017-12-26T00:08:57.375Z,15.70
2017-12-26T00:11:24.866Z,16.70
2017-12-26T00:13:52.388Z,17.50
2017-12-26T00:16:19.887Z,15.80
2017-12-26T00:18:47.365Z,15.00
2017-12-26T00:21:15.754Z,15.80
2017-12-26T00:23:44.013Z,16.40
2017-12-26T00:26:11.490Z,15.33
2017-12-26T00:28:39.861Z,18.13
2017-12-26T00:31:07.343Z,18.80
2017-12-26T00:33:34.856Z,17.57
2017-12-26T00:36:02.340Z,18.27
2017-12-26T00:38:30.592Z,20.00
2017-12-26T00:40:58.097Z,17.70
2017-12-26T00:43:25.595Z,19.50
2017-12-26T00:45:53.914Z,18.10
2017-12-26T00:48:22.156Z,20.03
2017-12-26T00:50:49.755Z,17.60
2017-12-26T00:53:17.255Z,14.83
2017-12-26T00:55:44.745Z,19.60
2017-12-26T00:58:12.225Z,17.50
2017-12-26T01:00:39.724Z,15.77
2017-12-26T01:03:07.292Z,17.10
2017-12-26T01:05:34.795Z,17.60
2017-12-26T01:08:02.285Z,15.17
2017-12-26T01:10:29.817Z,14.87
2017-12-26T01:12:58.068Z,15.00
2017-12-26T01:15:25.543Z,14.33
2017-12-26T01:17:53.792Z,17.03
2017-12-26T01:20:24.472Z,16.40
2017-12-26T01:22:52.146Z,15.83
2017-12-26T01:25:19.609Z,14.77
2017-12-26T01:27:47.096Z,16.37
2017-12-26T01:30:14.583Z,17.30
2017-12-26T01:32:42.828Z,15.17
2017-12-26T01:35:10.323Z,14.67
2017-12-26T01:37:38.618Z,14.77
2017-12-26T01:40:06.141Z,14.83
2017-12-26T01:42:33.609Z,14.70
2017-12-26T01:45:01.986Z,18.00
2017-12-26T01:47:29.500Z,14.70
2017-12-26T01:49:56.985Z,14.90
2017-12-26T01:52:24.472Z,14.10
2017-12-26T01:54:52.724Z,13.70
2017-12-26T01:57:20.210Z,13.80
2017-12-26T01:59:48.488Z,13.37
2017-12-26T02:02:15.975Z,13.70
2017-12-26T02:04:43.453Z,10.60
2017-12-26T02:07:10.936Z,13.57
2017-12-26T02:09:38.426Z,15.47
2017-12-26T02:12:05.907Z,15.00
2017-12-26T02:14:33.392Z,12.97
2017-12-26T02:17:00.856Z,13.90
2017-12-26T02:19:28.343Z,14.90
2017-12-26T02:21:55.827Z,13.77
2017-12-26T02:24:23.304Z,15.80
2017-12-26T02:26:50.810Z,14.73
2017-12-26T02:29:18.296Z,15.40
2017-12-26T02:31:45.804Z,15.43
2017-12-26T02:34:13.268Z,15.13
2017-12-26T02:36:40.729Z,15.00
2017-12-26T02:39:08.978Z,14.80
2017-12-26T02:41:36.452Z,16.33
2017-12-26T02:44:03.941Z,15.03
2017-12-26T02:46:32.185Z,15.60
2017-12-26T02:49:00.470Z,16.20
2017-12-26T02:51:28.026Z,13.73
2017-12-26T02:53:55.478Z,12.93
2017-12-26T02:56:22.948Z,14.33
2017-12-26T02:58:50.419Z,14.00
2017-12-26T03:01:18.687Z,15.93
2017-12-26T03:03:46.181Z,14.40
2017-12-26T03:06:13.658Z,13.80
2017-12-26T03:11:08.839Z,13.80
2017-12-26T03:13:36.313Z,14.17
2017-12-26T03:16:03.798Z,14.23
2017-12-26T03:18:31.343Z,13.20
2017-12-26T03:20:58.827Z,14.50
2017-12-26T03:23:26.364Z,13.40
2017-12-26T03:25:53.832Z,13.43
2017-12-26T03:28:21.351Z,14.57
2017-12-26T03:30:48.842Z,14.57
2017-12-26T03:33:16.332Z,16.83
2017-12-26T03:35:44.577Z,15.20
2017-12-26T03:38:12.058Z,11.63
2017-12-26T03:40:39.545Z,15.70
2017-12-26T03:43:07.783Z,13.20
2017-12-26T03:45:35.248Z,11.07
2017-12-26T03:48:03.665Z,13.10
2017-12-26T03:50:31.294Z,12.87
2017-12-26T03:52:59.911Z,11.60
2017-12-26T03:55:27.391Z,13.30
2017-12-26T03:57:54.882Z,15.10
2017-12-26T04:00:22.435Z,13.63
2017-12-26T04:02:49.935Z,13.30
2017-12-26T04:05:17.427Z,12.60
2017-12-26T04:07:44.919Z,12.10
2017-12-26T04:10:12.387Z,12.23
2017-12-26T04:12:40.655Z,13.63
2017-12-26T04:15:08.145Z,12.77
2017-12-26T04:17:35.638Z,12.07
2017-12-26T04:20:03.119Z,12.50
2017-12-26T04:22:30.589Z,11.80
2017-12-26T04:24:58.067Z,12.90
2017-12-26T04:27:26.300Z,12.27
2017-12-26T04:29:53.812Z,11.50
2017-12-26T04:32:21.277Z,11.73
2017-12-26T04:34:48.776Z,10.70
2017-12-26T04:37:16.260Z,11.50
2017-12-26T04:39:43.735Z,13.17
2017-12-26T04:42:11.276Z,12.10
2017-12-26T04:44:39.512Z,12.30
2017-12-26T04:47:06.973Z,9.00
2017-12-26T04:49:34.473Z,10.67
2017-12-26T04:52:02.705Z,13.30
2017-12-26T04:54:30.196Z,12.67
2017-12-26T04:56:58.454Z,12.60
2017-12-26T04:59:25.928Z,10.63
2017-12-26T05:01:54.177Z,10.33
2017-12-26T05:04:21.680Z,10.53
2017-12-26T05:06:49.928Z,12.23
2017-12-26T05:09:17.411Z,9.10
2017-12-26T05:11:45.635Z,9.10
2017-12-26T05:14:13.112Z,10.57
2017-12-26T05:16:40.589Z,9.77
2017-12-26T05:19:08.071Z,10.20
2017-12-26T05:21:35.567Z,10.27
2017-12-26T05:24:03.099Z,8.73
2017-12-26T05:26:30.560Z,9.83
2017-12-26T05:28:58.025Z,9.70
2017-12-26T05:31:30.118Z,11.13
2017-12-26T05:33:58.358Z,10.10
2017-12-26T05:36:25.862Z,9.20
2017-12-26T05:38:53.332Z,10.40
2017-12-26T05:41:21.578Z,9.13
2017-12-26T05:43:49.426Z,8.30
2017-12-26T05:46:16.881Z,9.50
2017-12-26T05:48:44.356Z,9.67
2017-12-26T05:51:12.601Z,10.63
2017-12-26T05:53:40.098Z,9.13
2017-12-26T05:56:07.578Z,9.20
2017-12-26T05:58:35.814Z,9.07
2017-12-26T06:01:03.327Z,8.03
2017-12-26T06:03:31.575Z,9.60
2017-12-26T06:05:59.087Z,9.47
2017-12-26T06:08:26.575Z,10.53
2017-12-26T06:10:54.049Z,7.37
2017-12-26T06:13:21.533Z,8.20
2017-12-26T06:15:49.020Z,9.07
2017-12-26T06:18:17.452Z,7.50
2017-12-26T06:20:45.200Z,8.13
2017-12-26T06:23:12.665Z,8.97
2017-12-26T06:25:40.149Z,7.27
2017-12-26T06:28:08.403Z,7.70
2017-12-26T06:30:35.888Z,7.67
2017-12-26T06:33:03.378Z,7.10
2017-12-26T06:35:30.852Z,7.10
2017-12-26T06:37:58.313Z,5.83
2017-12-26T06:40:25.819Z,7.23
2017-12-26T06:42:53.284Z,5.33
2017-12-26T06:45:20.758Z,5.97
2017-12-26T06:47:48.267Z,6.20
2017-12-26T06:50:16.721Z,5.30
2017-12-26T06:52:44.194Z,5.77
2017-12-26T06:55:11.676Z,5.67
2017-12-26T06:57:39.915Z,5.87
2017-12-26T07:00:07.376Z,5.40
2017-12-26T07:02:35.612Z,5.20
2017-12-26T07:05:03.120Z,4.17
2017-12-26T07:07:30.573Z,4.07
2017-12-26T07:09:58.045Z,5.00
2017-12-26T07:12:26.299Z,3.50
2017-12-26T07:14:53.766Z,4.07
2017-12-26T07:17:21.228Z,4.57
2017-12-26T07:19:49.464Z,4.20
2017-12-26T07:22:22.635Z,5.40
2017-12-26T07:24:50.096Z,4.47
2017-12-26T07:27:17.583Z,4.20
2017-12-26T07:29:45.102Z,5.10
2017-12-26T07:32:12.621Z,4.23
2017-12-26T07:34:40.113Z,3.10
2017-12-26T07:37:07.594Z,4.43
2017-12-26T07:39:35.063Z,5.20
2017-12-26T07:42:02.508Z,4.60
2017-12-26T07:44:29.960Z,4.67
2017-12-26T07:46:57.437Z,4.03
2017-12-26T07:49:24.895Z,4.20
2017-12-26T07:51:52.398Z,4.60
2017-12-26T07:54:20.628Z,5.90
2017-12-26T07:56:48.084Z,5.17
2017-12-26T07:59:15.551Z,3.83
2017-12-26T08:01:42.999Z,3.87
2017-12-26T08:04:10.469Z,4.33
2017-12-26T08:06:37.950Z,3.30
2017-12-26T08:09:06.176Z,3.93
2017-12-26T08:11:33.702Z,4.60
2017-12-26T08:14:01.325Z,4.20
2017-12-26T08:16:29.304Z,4.43
2017-12-26T08:18:56.972Z,3.70
2017-12-26T08:21:25.484Z,3.87
2017-12-26T08:23:53.189Z,3.93
2017-12-26T08:26:20.878Z,3.47
2017-12-26T08:28:48.390Z,3.37
2017-12-26T08:31:16.657Z,2.83
2017-12-26T08:33:44.224Z,3.10
2017-12-26T08:36:11.769Z,3.33
2017-12-26T08:38:39.249Z,3.00
2017-12-26T08:41:06.849Z,3.37
2017-12-26T08:43:34.348Z,3.23
2017-12-26T08:46:01.881Z,3.33
2017-12-26T08:48:29.480Z,3.17
2017-12-26T08:50:57.084Z,3.00
2017-12-26T08:53:24.584Z,3.47
2017-12-26T08:55:52.116Z,3.10
2017-12-26T08:58:19.680Z,3.73
2017-12-26T09:00:47.967Z,3.53
2017-12-26T09:03:15.441Z,3.30
2017-12-26T09:05:43.005Z,3.97
2017-12-26T09:08:10.565Z,2.97
2017-12-26T09:10:38.148Z,2.73
2017-12-26T09:13:05.929Z,7.13
2017-12-26T09:15:33.461Z,4.30
2017-12-26T09:18:01.029Z,3.37
2017-12-26T09:20:28.589Z,3.13
2017-12-26T09:22:56.098Z,3.13
2017-12-26T09:25:24.369Z,3.03
2017-12-26T09:27:51.940Z,2.90
2017-12-26T09:30:20.240Z,2.67
2017-12-26T09:32:48.484Z,2.17
2017-12-26T09:35:16.129Z,2.90
2017-12-26T09:37:43.647Z,3.27
2017-12-26T09:40:11.275Z,2.27
2017-12-26T09:42:38.794Z,2.67
2017-12-26T09:45:06.365Z,2.50
2017-12-26T09:47:34.943Z,2.10
2017-12-26T09:50:02.523Z,2.53
2017-12-26T09:52:30.134Z,3.40
2017-12-26T09:54:57.647Z,2.20
2017-12-26T09:57:25.236Z,3.00
2017-12-26T09:59:53.487Z,2.70
2017-12-26T10:02:20.984Z,2.57
2017-12-26T10:04:48.628Z,2.93
2017-12-26T10:07:16.220Z,3.43
2017-12-26T10:09:43.764Z,3.20
2017-12-26T10:12:11.326Z,3.10
2017-12-26T10:14:38.926Z,2.80
2017-12-26T10:17:07.260Z,2.13
2017-12-26T10:19:34.904Z,1.97
2017-12-26T10:22:02.475Z,2.37
2017-12-26T10:24:30.057Z,2.07
2017-12-26T10:26:57.677Z,1.77
2017-12-26T10:29:25.547Z,2.27
2017-12-26T10:31:53.184Z,2.57
2017-12-26T10:34:21.500Z,3.47
2017-12-26T10:36:49.816Z,2.20
2017-12-26T10:39:17.421Z,1.50
2017-12-26T10:41:45.868Z,1.83
2017-12-26T10:44:13.357Z,1.77
2017-12-26T10:46:41.002Z,1.60
2017-12-26T10:49:09.293Z,1.40
2017-12-26T10:51:36.885Z,1.13
2017-12-26T10:54:04.628Z,1.50
2017-12-26T10:56:32.271Z,1.33
2017-12-26T10:59:00.536Z,1.30
2017-12-26T11:01:28.804Z,1.30
2017-12-26T11:03:57.078Z,1.57
2017-12-26T11:06:25.362Z,1.90
2017-12-26T11:08:53.636Z,1.60
2017-12-26T11:11:21.892Z,1.30
2017-12-26T11:13:49.401Z,1.47
2017-12-26T11:16:16.888Z,1.57
2017-12-26T11:18:44.397Z,1.73
2017-12-26T11:21:11.894Z,3.30
2017-12-26T11:23:39.390Z,1.90
2017-12-26T11:26:06.902Z,1.20
2017-12-26T11:28:34.422Z,1.57
2017-12-26T11:31:02.651Z,2.27
2017-12-26T11:33:30.263Z,1.53
2017-12-26T11:35:57.760Z,1.70
2017-12-26T11:38:25.288Z,1.17
2017-12-26T11:40:52.785Z,1.50
2017-12-26T11:43:20.319Z,1.40
2017-12-26T11:45:48.812Z,1.30
2017-12-26T11:48:16.356Z,1.20
2017-12-26T11:50:46.413Z,1.30
2017-12-26T11:53:13.925Z,1.20
2017-12-26T11:55:41.432Z,1.30
2017-12-26T11:58:08.918Z,1.20
2017-12-26T12:00:36.402Z,0.73
2017-12-26T12:03:03.893Z,1.00
2017-12-26T12:05:31.393Z,1.20
2017-12-26T12:07:59.635Z,1.00
2017-12-26T12:10:27.141Z,1.13
2017-12-26T12:12:55.392Z,1.70
2017-12-26T12:15:22.914Z,1.33
2017-12-26T12:17:50.414Z,1.37
2017-12-26T12:20:18.682Z,1.63
2017-12-26T12:22:46.163Z,1.57
2017-12-26T12:25:13.646Z,1.23
2017-12-26T12:27:42.042Z,1.10
2017-12-26T12:30:10.315Z,1.20
2017-12-26T12:32:37.838Z,1.13
2017-12-26T12:35:05.319Z,1.47
2017-12-26T12:37:32.822Z,1.60
2017-12-26T12:40:00.348Z,1.60
2017-12-26T12:42:27.844Z,2.07
2017-12-26T12:44:55.366Z,2.03
2017-12-26T12:47:22.872Z,1.60
2017-12-26T12:49:50.365Z,1.87
2017-12-26T12:52:17.960Z,1.80
2017-12-26T12:54:45.628Z,1.60
2017-12-26T12:57:13.137Z,1.40
2017-12-26T12:59:40.611Z,1.47
2017-12-26T13:02:08.105Z,2.57
2017-12-26T13:04:35.638Z,1.53
2017-12-26T13:07:03.130Z,1.40
2017-12-26T13:09:30.668Z,1.97
2017-12-26T13:11:58.139Z,1.90
2017-12-26T13:14:25.664Z,1.80
2017-12-26T13:16:53.136Z,1.50
2017-12-26T13:19:20.616Z,1.70
2017-12-26T13:21:48.141Z,1.47
2017-12-26T13:24:15.644Z,1.83
2017-12-26T13:26:43.915Z,1.67
2017-12-26T13:29:12.186Z,1.60
2017-12-26T13:31:39.699Z,1.30
2017-12-26T13:34:07.177Z,1.40
2017-12-26T13:36:34.644Z,1.43
2017-12-26T13:39:02.124Z,1.50
2017-12-26T13:41:29.592Z,1.27
2017-12-26T13:43:57.085Z,1.40
2017-12-26T13:46:24.579Z,1.30
2017-12-26T13:48:52.051Z,2.03
2017-12-26T13:51:20.285Z,5.40
2017-12-26T13:53:47.987Z,5.17
2017-12-26T13:56:15.874Z,1.50
2017-12-26T13:58:43.364Z,1.53
2017-12-26T14:01:10.973Z,1.67
2017-12-26T14:03:39.269Z,1.87
2017-12-26T14:06:06.897Z,2.17
2017-12-26T14:08:35.648Z,1.03
2017-12-26T14:11:03.625Z,2.20
2017-12-26T14:13:31.211Z,1.23
2017-12-26T14:15:59.133Z,1.33
2017-12-26T14:18:26.681Z,1.90
2017-12-26T14:20:54.955Z,1.43
2017-12-26T14:23:22.439Z,1.27
2017-12-26T14:25:50.714Z,2.00
2017-12-26T14:28:18.522Z,1.50
2017-12-26T14:30:46.155Z,1.20
2017-12-26T14:33:13.716Z,1.80
2017-12-26T14:35:41.528Z,1.60
2017-12-26T14:38:10.251Z,1.90
2017-12-26T14:40:38.096Z,1.20
2017-12-26T14:43:05.891Z,1.60
2017-12-26T14:45:33.709Z,3.53
2017-12-26T14:48:01.751Z,2.93
2017-12-26T14:50:29.422Z,4.60
2017-12-26T14:52:57.128Z,3.27
2017-12-26T14:55:24.942Z,2.50
2017-12-26T14:57:52.899Z,1.40
2017-12-26T15:00:20.537Z,1.23
2017-12-26T15:02:48.375Z,1.73
2017-12-26T15:05:16.134Z,1.47
2017-12-26T15:07:44.606Z,1.13
2017-12-26T15:10:12.177Z,1.60
2017-12-26T15:12:40.505Z,10.97
2017-12-26T15:15:08.028Z,2.60
2017-12-26T15:17:36.488Z,2.20
2017-12-26T15:20:04.210Z,1.60
2017-12-26T15:22:34.419Z,1.80
2017-12-26T15:25:02.307Z,5.57
2017-12-26T15:27:30.037Z,3.10
2017-12-26T15:29:58.041Z,4.70
2017-12-26T15:32:25.803Z,2.50
2017-12-26T15:34:53.363Z,2.47
2017-12-26T15:37:22.133Z,1.40
2017-12-26T15:39:50.153Z,1.60
2017-12-26T15:42:18.984Z,0.90
2017-12-26T15:44:47.442Z,1.17
2017-12-26T15:47:15.225Z,1.13
2017-12-26T15:49:43.733Z,1.20
2017-12-26T15:52:11.710Z,2.20
2017-12-26T15:54:39.335Z,1.40
2017-12-26T15:57:06.873Z,1.10
2017-12-26T15:59:35.788Z,1.00
2017-12-26T16:02:03.523Z,1.00
2017-12-26T16:04:31.149Z,1.20
2017-12-26T16:06:58.756Z,1.20
2017-12-26T16:09:26.691Z,1.17
2017-12-26T16:11:54.444Z,1.17
2017-12-26T16:14:22.597Z,1.00
2017-12-26T16:16:50.893Z,1.30
2017-12-26T16:19:18.460Z,1.40
2017-12-26T16:21:45.979Z,1.40
2017-12-26T16:24:13.596Z,1.60
2017-12-26T16:26:41.109Z,1.00
2017-12-26T16:29:08.662Z,1.20
2017-12-26T16:31:36.178Z,1.00
2017-12-26T16:34:04.556Z,1.03
2017-12-26T16:36:32.929Z,1.30
2017-12-26T16:39:00.538Z,1.30
2017-12-26T16:41:28.019Z,1.70
2017-12-26T16:43:55.586Z,1.40
2017-12-26T16:46:23.086Z,1.30
2017-12-26T16:48:51.461Z,1.60
2017-12-26T16:51:18.985Z,1.23
2017-12-26T16:53:46.504Z,1.70
2017-12-26T16:56:14.788Z,1.40
2017-12-26T16:58:42.395Z,1.40
2017-12-26T17:01:10.647Z,1.53
2017-12-26T17:03:38.243Z,1.63
2017-12-26T17:06:06.555Z,1.90
2017-12-26T17:08:34.037Z,2.20
2017-12-26T17:11:01.568Z,1.80
2017-12-26T17:13:29.107Z,1.20
2017-12-26T17:15:56.770Z,1.40
2017-12-26T17:18:24.381Z,1.73
2017-12-26T17:20:51.868Z,3.20
2017-12-26T17:23:20.252Z,2.40
2017-12-26T17:25:48.608Z,1.90
2017-12-26T17:28:16.121Z,1.80
2017-12-26T17:30:43.778Z,2.40
2017-12-26T17:33:11.284Z,2.80
2017-12-26T17:35:39.382Z,1.60
2017-12-26T17:38:07.020Z,2.20
2017-12-26T17:40:34.516Z,2.30
2017-12-26T17:43:02.752Z,2.00
2017-12-26T17:45:30.268Z,1.83
2017-12-26T17:47:57.762Z,1.60
2017-12-26T17:50:25.356Z,1.73
2017-12-26T17:52:52.854Z,1.63
2017-12-26T17:55:20.344Z,1.70
2017-12-26T17:57:47.811Z,1.70
2017-12-26T18:00:16.071Z,1.80
2017-12-26T18:02:43.534Z,1.73
2017-12-26T18:05:11.040Z,1.77
2017-12-26T18:07:38.671Z,2.03
2017-12-26T18:10:06.910Z,3.33
2017-12-26T18:12:34.404Z,3.20
2017-12-26T18:15:02.652Z,2.17
2017-12-26T18:17:30.136Z,3.33
2017-12-26T18:19:58.412Z,3.53
2017-12-26T18:22:26.653Z,2.07
2017-12-26T18:24:54.150Z,2.00
2017-12-26T18:27:22.397Z,2.57
2017-12-26T18:29:49.879Z,1.93
2017-12-26T18:32:18.121Z,2.47
2017-12-26T18:34:45.633Z,2.10
2017-12-26T18:37:13.156Z,1.73
2017-12-26T18:39:40.629Z,1.73
2017-12-26T18:42:08.872Z,2.10
2017-12-26T18:44:36.362Z,1.63
2017-12-26T18:47:04.592Z,2.90
2017-12-26T18:49:32.123Z,1.57
2017-12-26T18:51:59.591Z,1.90
2017-12-26T18:54:27.068Z,1.73
2017-12-26T18:56:54.552Z,1.60
2017-12-26T18:59:22.065Z,1.90
2017-12-26T19:01:49.552Z,1.87
2017-12-26T19:04:17.023Z,2.03
2017-12-26T19:06:44.506Z,1.80
2017-12-26T19:09:11.994Z,1.70
2017-12-26T19:11:39.474Z,1.80
2017-12-26T19:14:06.961Z,1.33
2017-12-26T19:16:34.441Z,2.40
2017-12-26T19:19:01.929Z,1.63
2017-12-26T19:21:29.396Z,1.30
2017-12-26T19:23:56.864Z,1.90
2017-12-26T19:26:24.601Z,1.60
2017-12-26T19:28:52.086Z,2.13
2017-12-26T19:31:19.680Z,1.90
2017-12-26T19:33:47.987Z,2.47
2017-12-26T19:36:16.201Z,1.60
2017-12-26T19:38:44.942Z,2.10
2017-12-26T19:41:12.417Z,8.40
2017-12-26T19:43:39.890Z,2.00
2017-12-26T19:46:07.377Z,2.10
2017-12-26T19:48:34.850Z,2.20
2017-12-26T19:51:03.098Z,3.23
2017-12-26T19:53:30.560Z,3.73
2017-12-26T19:55:58.034Z,3.47
2017-12-26T19:58:25.516Z,2.13
2017-12-26T20:00:52.979Z,1.80
2017-12-26T20:03:20.458Z,2.30
2017-12-26T20:05:47.933Z,2.17
2017-12-26T20:08:15.384Z,2.03
2017-12-26T20:10:42.891Z,2.60
2017-12-26T20:13:11.165Z,14.60
2017-12-26T20:15:38.676Z,2.53
2017-12-26T20:18:06.874Z,2.00
2017-12-26T20:20:34.347Z,2.10
2017-12-26T20:23:02.604Z,1.70
2017-12-26T20:25:30.091Z,2.13
2017-12-26T20:27:57.573Z,2.70
2017-12-26T20:30:25.059Z,2.47
2017-12-26T20:32:52.518Z,1.70
2017-12-26T20:35:20.004Z,2.40
2017-12-26T20:37:48.270Z,14.40
2017-12-26T20:40:15.763Z,3.43
2017-12-26T20:42:43.234Z,2.77
2017-12-26T20:45:10.687Z,2.40
2017-12-26T20:47:38.646Z,1.77
2017-12-26T20:50:06.140Z,1.80
2017-12-26T20:52:33.628Z,2.57
2017-12-26T20:55:01.114Z,1.60
2017-12-26T20:57:28.604Z,1.80
2017-12-26T20:59:56.113Z,2.33
2017-12-26T21:02:24.363Z,2.37
2017-12-26T21:04:52.817Z,1.43
2017-12-26T21:07:20.302Z,2.50
2017-12-26T21:09:47.761Z,2.20
2017-12-26T21:12:15.261Z,2.07
2017-12-26T21:14:43.008Z,2.40
2017-12-26T21:17:11.868Z,2.40
2017-12-26T21:19:41.261Z,2.77
2017-12-26T21:22:09.141Z,3.63
2017-12-26T21:24:36.657Z,2.40
2017-12-26T21:27:04.187Z,2.03
2017-12-26T21:29:32.434Z,2.27
2017-12-26T21:31:59.942Z,2.17
2017-12-26T21:34:27.432Z,1.73
2017-12-26T21:36:55.037Z,2.33
2017-12-26T21:39:23.322Z,1.77
2017-12-26T21:41:51.547Z,1.50
2017-12-26T21:44:19.034Z,2.40
2017-12-26T21:46:46.533Z,1.60
2017-12-26T21:49:14.011Z,1.90
2017-12-26T21:51:41.499Z,2.00
2017-12-26T21:54:12.465Z,3.03
2017-12-26T21:56:40.696Z,3.00
2017-12-26T21:59:08.187Z,2.70
2017-12-26T22:01:36.465Z,3.20
2017-12-26T22:04:04.714Z,3.80
2017-12-26T22:06:32.184Z,2.60
2017-12-26T22:08:59.667Z,2.43
2017-12-26T22:11:27.132Z,2.87
2017-12-26T22:13:54.616Z,2.77
2017-12-26T22:16:22.103Z,2.20
2017-12-26T22:18:49.625Z,2.83
2017-12-26T22:21:17.870Z,2.30
2017-12-26T22:23:45.370Z,2.20
2017-12-26T22:26:12.830Z,2.40
2017-12-26T22:28:40.305Z,2.67
2017-12-26T22:31:07.886Z,2.07
2017-12-26T22:33:35.406Z,2.30
2017-12-26T22:36:02.879Z,2.27
2017-12-26T22:38:30.374Z,3.00
2017-12-26T22:40:57.859Z,2.80
2017-12-26T22:43:26.109Z,2.17
2017-12-26T22:45:54.337Z,1.43
2017-12-26T22:48:22.070Z,2.37
2017-12-26T22:50:49.992Z,2.37
2017-12-26T22:53:17.455Z,2.00
2017-12-26T22:55:45.688Z,2.00
2017-12-26T22:58:13.922Z,1.87
2017-12-26T23:00:41.483Z,1.50
2017-12-26T23:03:09.015Z,1.67
2017-12-26T23:05:36.490Z,2.67
2017-12-26T23:08:04.712Z,1.47
2017-12-26T23:10:32.226Z,1.80
2017-12-26T23:13:00.473Z,1.60
2017-12-26T23:15:33.501Z,1.20
2017-12-26T23:18:07.432Z,1.00
2017-12-26T23:20:40.607Z,1.83
2017-12-26T23:23:13.680Z,1.57
2017-12-26T23:25:46.771Z,1.43
2017-12-26T23:28:19.950Z,1.87
2017-12-26T23:30:53.101Z,1.97
2017-12-26T23:33:26.310Z,1.70
2017-12-26T23:35:59.505Z,1.63
2017-12-26T23:38:32.638Z,2.00
2017-12-26T23:41:05.818Z,1.60
2017-12-26T23:43:39.698Z,1.40
2017-12-26T23:46:12.867Z,2.10
2017-12-26T23:51:46.679Z,1.60
2017-12-26T23:54:19.920Z,1.40
2017-12-26T23:56:53.098Z,1.60
2017-12-26T23:59:26.277Z,1.87
